createdAt,value
2018-09-03T00:00:37.826Z,13.80
2018-09-03T00:03:06.285Z,13.70
2018-09-03T00:05:34.834Z,13.70
2018-09-03T00:08:03.266Z,13.60
2018-09-03T00:10:31.714Z,13.60
2018-09-03T00:13:00.129Z,13.60
2018-09-03T00:15:28.545Z,13.60
2018-09-03T00:17:56.990Z,13.70
2018-09-03T00:20:25.413Z,13.70
2018-09-03T00:22:53.846Z,13.70
2018-09-03T00:25:22.280Z,13.70
2018-09-03T00:27:50.746Z,13.70
2018-09-03T00:30:19.164Z,13.60
2018-09-03T00:32:53.045Z,13.70
2018-09-03T00:35:26.926Z,13.60
2018-09-03T00:38:00.610Z,13.70
2018-09-03T00:40:34.505Z,13.70
2018-09-03T00:43:08.185Z,13.70
2018-09-03T00:45:41.886Z,13.70
2018-09-03T00:48:10.337Z,13.70
2018-09-03T00:50:38.773Z,13.70
2018-09-03T00:53:07.255Z,13.70
2018-09-03T00:55:35.713Z,13.70
2018-09-03T00:58:04.495Z,13.60
2018-09-03T01:00:32.921Z,13.60
2018-09-03T01:03:01.431Z,13.60
2018-09-03T01:05:29.871Z,13.60
2018-09-03T01:07:58.342Z,13.60
2018-09-03T01:10:26.771Z,13.60
2018-09-03T01:12:55.206Z,13.70
2018-09-03T01:15:24.033Z,13.70
2018-09-03T01:17:52.501Z,13.70
2018-09-03T01:20:20.921Z,13.60
2018-09-03T01:22:49.353Z,13.60
2018-09-03T01:25:17.798Z,13.70
2018-09-03T01:27:46.237Z,13.70
2018-09-03T01:30:14.692Z,13.70
2018-09-03T01:32:43.145Z,13.70
2018-09-03T01:35:11.590Z,13.80
2018-09-03T01:37:40.010Z,13.70
2018-09-03T01:40:08.490Z,13.70
2018-09-03T01:42:36.935Z,13.80
2018-09-03T01:45:05.443Z,13.90
2018-09-03T01:47:34.431Z,13.90
2018-09-03T01:50:02.858Z,13.90
2018-09-03T01:52:31.342Z,14.00
2018-09-03T01:54:59.762Z,14.00
2018-09-03T01:57:28.194Z,13.90
2018-09-03T01:59:56.841Z,13.90
2018-09-03T02:02:25.265Z,14.00
2018-09-03T02:04:53.697Z,13.90
2018-09-03T02:07:22.129Z,13.80
2018-09-03T02:09:50.574Z,13.80
2018-09-03T02:12:19.025Z,13.70
2018-09-03T02:14:47.445Z,13.60
2018-09-03T02:17:15.937Z,13.60
2018-09-03T02:19:44.627Z,13.60
2018-09-03T02:22:13.062Z,13.70
2018-09-03T02:24:41.493Z,13.80
2018-09-03T02:27:09.948Z,13.70
2018-09-03T02:29:38.413Z,13.70
2018-09-03T02:32:06.890Z,13.70
2018-09-03T02:34:35.342Z,13.70
2018-09-03T02:37:03.800Z,13.70
2018-09-03T02:39:32.563Z,13.60
2018-09-03T02:42:01.844Z,13.60
2018-09-03T02:44:30.249Z,13.70
2018-09-03T02:46:58.725Z,13.70
2018-09-03T02:49:27.153Z,13.70
2018-09-03T02:51:55.857Z,13.70
2018-09-03T02:54:24.289Z,13.80
2018-09-03T02:56:52.710Z,13.90
2018-09-03T02:59:21.175Z,13.90
2018-09-03T03:01:49.998Z,14.00
2018-09-03T03:04:18.452Z,13.90
2018-09-03T03:06:46.868Z,14.00
2018-09-03T03:09:15.306Z,14.00
2018-09-03T03:11:43.756Z,13.90
2018-09-03T03:14:12.181Z,13.90
2018-09-03T03:16:40.650Z,13.90
2018-09-03T03:19:09.076Z,13.90
2018-09-03T03:21:37.551Z,13.90
2018-09-03T03:24:06.018Z,13.90
2018-09-03T03:26:34.427Z,13.90
2018-09-03T03:29:02.902Z,13.80
2018-09-03T03:31:31.321Z,13.80
2018-09-03T03:33:59.808Z,13.80
2018-09-03T03:36:28.269Z,13.70
2018-09-03T03:38:56.761Z,13.70
2018-09-03T03:41:25.260Z,13.70
2018-09-03T03:43:53.676Z,13.80
2018-09-03T03:46:22.149Z,13.90
2018-09-03T03:48:50.581Z,14.00
2018-09-03T03:51:19.058Z,14.00
2018-09-03T03:53:47.521Z,14.00
2018-09-03T03:56:15.969Z,14.00
2018-09-03T03:58:44.494Z,14.00
2018-09-03T04:01:12.936Z,14.00
2018-09-03T04:03:41.398Z,14.00
2018-09-03T04:06:09.936Z,13.90
2018-09-03T04:08:38.397Z,13.90
2018-09-03T04:11:06.897Z,13.90
2018-09-03T04:13:35.338Z,13.90
2018-09-03T04:16:03.842Z,13.90
2018-09-03T04:18:32.288Z,14.00
2018-09-03T04:21:00.753Z,14.00
2018-09-03T04:23:29.283Z,14.00
2018-09-03T04:25:57.866Z,14.00
2018-09-03T04:28:26.345Z,14.10
2018-09-03T04:30:54.777Z,14.00
2018-09-03T04:33:23.501Z,13.90
2018-09-03T04:35:51.963Z,14.00
2018-09-03T04:38:20.446Z,14.00
2018-09-03T04:40:48.905Z,14.00
2018-09-03T04:43:17.349Z,13.90
2018-09-03T04:45:45.889Z,14.00
2018-09-03T04:48:14.460Z,14.00
2018-09-03T04:50:42.835Z,14.00
2018-09-03T04:53:11.301Z,14.00
2018-09-03T04:55:39.761Z,14.00
2018-09-03T04:58:08.446Z,14.10
2018-09-03T05:00:36.902Z,14.10
2018-09-03T05:03:05.619Z,14.10
2018-09-03T05:05:34.068Z,14.20
2018-09-03T05:08:02.497Z,14.20
2018-09-03T05:10:30.950Z,14.20
2018-09-03T05:12:59.381Z,14.10
2018-09-03T05:15:27.843Z,14.10
2018-09-03T05:17:56.325Z,14.00
2018-09-03T05:20:24.785Z,14.00
2018-09-03T05:22:53.273Z,14.10
2018-09-03T05:25:21.957Z,14.10
2018-09-03T05:27:50.685Z,14.10
2018-09-03T05:30:19.113Z,14.10
2018-09-03T05:32:47.590Z,14.20
2018-09-03T05:35:16.050Z,14.20
2018-09-03T05:37:44.713Z,14.30
2018-09-03T05:40:13.178Z,14.40
2018-09-03T05:42:41.605Z,14.40
2018-09-03T05:45:10.339Z,14.50
2018-09-03T05:47:38.805Z,14.40
2018-09-03T05:50:07.369Z,14.40
2018-09-03T05:52:35.837Z,14.30
2018-09-03T05:55:04.625Z,14.20
2018-09-03T05:57:33.077Z,14.20
2018-09-03T06:00:01.522Z,14.10
2018-09-03T06:02:29.989Z,14.10
2018-09-03T06:04:58.492Z,14.10
2018-09-03T06:07:26.888Z,14.20
2018-09-03T06:09:55.409Z,14.20
2018-09-03T06:12:24.157Z,14.40
2018-09-03T06:14:52.613Z,14.40
2018-09-03T06:17:21.301Z,14.50
2018-09-03T06:19:49.729Z,14.50
2018-09-03T06:22:18.213Z,14.50
2018-09-03T06:24:46.990Z,14.50
2018-09-03T06:27:15.469Z,14.60
2018-09-03T06:29:44.216Z,14.60
2018-09-03T06:32:12.665Z,14.60
2018-09-03T06:34:41.119Z,14.60
2018-09-03T06:37:09.565Z,14.70
2018-09-03T06:39:38.103Z,14.70
2018-09-03T06:42:06.950Z,14.80
2018-09-03T06:44:35.461Z,14.90
2018-09-03T06:47:04.014Z,15.00
2018-09-03T06:49:32.450Z,15.00
2018-09-03T06:52:00.971Z,15.10
2018-09-03T06:54:29.420Z,15.20
2018-09-03T06:56:57.903Z,15.10
2018-09-03T06:59:26.403Z,15.10
2018-09-03T07:01:55.240Z,15.20
2018-09-03T07:04:23.683Z,15.40
2018-09-03T07:06:52.179Z,15.30
2018-09-03T07:09:20.750Z,15.40
2018-09-03T07:11:49.202Z,15.40
2018-09-03T07:14:17.661Z,15.30
2018-09-03T07:16:46.135Z,15.50
2018-09-03T07:19:14.576Z,15.70
2018-09-03T07:21:43.298Z,15.60
2018-09-03T07:24:11.749Z,15.60
2018-09-03T07:26:40.333Z,15.60
2018-09-03T07:29:08.782Z,15.60
2018-09-03T07:31:37.250Z,15.60
2018-09-03T07:34:05.729Z,15.70
2018-09-03T07:36:34.446Z,15.80
2018-09-03T07:39:02.956Z,15.90
2018-09-03T07:41:31.453Z,16.00
2018-09-03T07:43:59.900Z,15.90
2018-09-03T07:46:28.609Z,15.90
2018-09-03T07:48:57.087Z,15.90
2018-09-03T07:51:25.598Z,15.80
2018-09-03T07:53:54.045Z,15.60
2018-09-03T07:56:22.537Z,15.70
2018-09-03T07:58:50.978Z,15.60
2018-09-03T08:01:19.520Z,15.70
2018-09-03T08:03:47.949Z,15.50
2018-09-03T08:06:16.383Z,15.70
2018-09-03T08:08:44.852Z,15.80
2018-09-03T08:11:13.299Z,15.80
2018-09-03T08:13:42.852Z,15.80
2018-09-03T08:16:11.978Z,15.80
2018-09-03T08:18:41.095Z,15.80
2018-09-03T08:21:09.553Z,15.90
2018-09-03T08:23:38.046Z,15.90
2018-09-03T08:26:06.737Z,15.90
2018-09-03T08:28:35.169Z,16.00
2018-09-03T08:31:03.648Z,16.00
2018-09-03T08:33:32.089Z,16.10
2018-09-03T08:36:00.654Z,16.10
2018-09-03T08:38:29.121Z,16.10
2018-09-03T08:40:57.608Z,16.10
2018-09-03T08:43:26.066Z,16.10
2018-09-03T08:45:54.530Z,16.10
2018-09-03T08:48:23.077Z,16.10
2018-09-03T08:50:51.528Z,16.10
2018-09-03T08:53:20.014Z,16.00
2018-09-03T08:55:48.478Z,15.90
2018-09-03T08:58:16.985Z,15.90
2018-09-03T09:00:45.437Z,15.90
2018-09-03T09:03:19.125Z,15.80
2018-09-03T09:05:47.617Z,15.60
2018-09-03T09:08:16.057Z,15.70
2018-09-03T09:10:44.518Z,15.80
2018-09-03T09:13:13.036Z,15.80
2018-09-03T09:15:41.721Z,16.00
2018-09-03T09:18:10.161Z,15.90
2018-09-03T09:20:38.632Z,15.90
2018-09-03T09:23:07.087Z,15.90
2018-09-03T09:25:35.553Z,15.80
2018-09-03T09:28:04.009Z,15.80
2018-09-03T09:30:32.515Z,15.70
2018-09-03T09:33:00.970Z,15.80
2018-09-03T09:35:29.445Z,15.80
2018-09-03T09:37:57.898Z,15.80
2018-09-03T09:40:26.358Z,15.80
2018-09-03T09:42:54.932Z,15.80
2018-09-03T09:45:23.357Z,15.70
2018-09-03T09:47:51.797Z,15.90
2018-09-03T09:50:20.569Z,16.00
2018-09-03T09:52:49.291Z,16.10
2018-09-03T09:55:17.832Z,16.30
2018-09-03T09:57:46.299Z,16.60
2018-09-03T10:00:19.950Z,16.70
2018-09-03T10:02:48.386Z,16.70
2018-09-03T10:05:16.844Z,16.60
2018-09-03T10:07:45.312Z,16.60
2018-09-03T10:10:13.753Z,16.70
2018-09-03T10:12:42.208Z,16.80
2018-09-03T10:15:10.651Z,17.00
2018-09-03T10:17:39.152Z,17.00
2018-09-03T10:20:07.686Z,16.90
2018-09-03T10:22:36.130Z,16.90
2018-09-03T10:25:04.714Z,16.90
2018-09-03T10:27:33.169Z,16.70
2018-09-03T10:30:01.627Z,16.40
2018-09-03T10:32:31.091Z,16.40
2018-09-03T10:34:59.581Z,16.50
2018-09-03T10:37:28.029Z,16.70
2018-09-03T10:39:56.483Z,16.80
2018-09-03T10:42:27.315Z,16.90
2018-09-03T10:44:55.825Z,16.80
2018-09-03T10:47:24.500Z,16.90
2018-09-03T10:49:52.834Z,16.90
2018-09-03T10:52:21.322Z,17.30
2018-09-03T10:54:49.795Z,17.50
2018-09-03T10:57:18.274Z,17.70
2018-09-03T10:59:46.717Z,17.80
2018-09-03T11:02:15.230Z,17.60
2018-09-03T11:04:43.710Z,17.50
2018-09-03T11:07:12.182Z,17.10
2018-09-03T11:09:40.901Z,16.90
2018-09-03T11:12:09.390Z,16.90
2018-09-03T11:14:38.122Z,16.90
2018-09-03T11:17:06.573Z,17.00
2018-09-03T11:19:39.044Z,17.20
2018-09-03T11:22:07.486Z,17.50
2018-09-03T11:24:35.953Z,17.90
2018-09-03T11:27:04.457Z,18.10
2018-09-03T11:29:33.169Z,18.10
2018-09-03T11:32:01.907Z,18.10
2018-09-03T11:34:30.334Z,18.30
2018-09-03T11:36:58.777Z,18.30
2018-09-03T11:39:27.209Z,18.30
2018-09-03T11:41:55.677Z,18.00
2018-09-03T11:44:24.099Z,17.90
2018-09-03T11:46:52.549Z,17.80
2018-09-03T11:49:21.010Z,17.50
2018-09-03T11:51:49.697Z,17.30
2018-09-03T11:54:18.634Z,17.30
2018-09-03T11:56:47.322Z,17.30
2018-09-03T11:59:15.847Z,17.50
2018-09-03T12:01:44.554Z,17.50
2018-09-03T12:04:13.094Z,17.70
2018-09-03T12:06:41.646Z,17.90
2018-09-03T12:09:11.073Z,18.00
2018-09-03T12:11:39.575Z,18.20
2018-09-03T12:14:20.280Z,18.00
2018-09-03T12:16:48.777Z,18.00
2018-09-03T12:19:17.250Z,18.10
2018-09-03T12:21:45.735Z,18.40
2018-09-03T12:24:14.220Z,18.60
2018-09-03T12:26:42.700Z,18.70
2018-09-03T12:29:11.182Z,18.80
2018-09-03T12:31:39.662Z,18.90
2018-09-03T12:34:08.132Z,19.10
2018-09-03T12:36:36.600Z,19.00
2018-09-03T12:39:08.396Z,19.00
2018-09-03T12:41:36.913Z,18.70
2018-09-03T12:44:05.493Z,18.80
2018-09-03T12:46:33.973Z,18.80
2018-09-03T12:49:02.453Z,19.00
2018-09-03T12:51:30.957Z,19.00
2018-09-03T12:53:59.402Z,19.00
2018-09-03T12:56:27.861Z,19.10
2018-09-03T12:58:56.358Z,19.00
2018-09-03T13:01:24.840Z,18.80
2018-09-03T13:03:53.291Z,18.70
2018-09-03T13:06:21.750Z,18.80
2018-09-03T13:08:50.199Z,18.70
2018-09-03T13:11:18.726Z,18.70
2018-09-03T13:13:47.197Z,18.70
2018-09-03T13:16:15.674Z,18.80
2018-09-03T13:18:44.203Z,19.00
2018-09-03T13:21:12.956Z,19.10
2018-09-03T13:23:41.495Z,19.20
2018-09-03T13:26:09.942Z,19.10
2018-09-03T13:28:38.637Z,19.10
2018-09-03T13:31:07.073Z,19.20
2018-09-03T13:33:35.580Z,19.30
2018-09-03T13:36:04.083Z,19.40
2018-09-03T13:38:32.530Z,19.40
2018-09-03T13:41:01.237Z,19.50
2018-09-03T13:43:29.657Z,19.40
2018-09-03T13:45:58.147Z,19.50
2018-09-03T13:48:26.573Z,19.60
2018-09-03T13:50:55.084Z,19.60
2018-09-03T13:53:23.530Z,19.50
2018-09-03T13:55:51.993Z,19.30
2018-09-03T13:58:20.474Z,19.10
2018-09-03T14:00:48.924Z,19.10
2018-09-03T14:03:17.378Z,19.30
2018-09-03T14:05:45.866Z,19.30
2018-09-03T14:08:14.582Z,19.40
2018-09-03T14:10:43.017Z,19.40
2018-09-03T14:13:11.566Z,19.40
2018-09-03T14:15:40.327Z,19.50
2018-09-03T14:18:08.810Z,19.40
2018-09-03T14:20:37.245Z,19.40
2018-09-03T14:23:06.063Z,19.40
2018-09-03T14:25:34.561Z,19.40
2018-09-03T14:28:03.057Z,19.50
2018-09-03T14:30:31.525Z,19.50
2018-09-03T14:32:59.987Z,19.50
2018-09-03T14:35:28.447Z,19.40
2018-09-03T14:37:56.905Z,19.40
2018-09-03T14:40:25.989Z,19.60
2018-09-03T14:42:54.522Z,19.70
2018-09-03T14:45:23.038Z,19.70
2018-09-03T14:47:51.465Z,19.60
2018-09-03T14:50:19.958Z,19.60
2018-09-03T14:52:48.441Z,19.60
2018-09-03T14:55:16.923Z,19.60
2018-09-03T14:57:45.420Z,19.50
2018-09-03T15:00:13.886Z,19.50
2018-09-03T15:02:42.358Z,19.40
2018-09-03T15:05:10.864Z,19.70
2018-09-03T15:07:39.383Z,19.50
2018-09-03T15:10:07.845Z,19.40
2018-09-03T15:12:36.294Z,19.40
2018-09-03T15:15:08.408Z,19.40
2018-09-03T15:17:36.842Z,19.40
2018-09-03T15:20:06.195Z,19.40
2018-09-03T15:22:35.014Z,19.30
2018-09-03T15:25:03.536Z,19.20
2018-09-03T15:27:31.999Z,19.10
2018-09-03T15:30:00.466Z,18.90
2018-09-03T15:32:28.996Z,19.10
2018-09-03T15:34:57.449Z,19.00
2018-09-03T15:37:25.873Z,18.90
2018-09-03T15:39:54.477Z,18.80
2018-09-03T15:42:22.973Z,18.90
2018-09-03T15:44:51.610Z,18.90
2018-09-03T15:47:20.090Z,18.90
2018-09-03T15:49:48.540Z,18.90
2018-09-03T15:52:17.013Z,18.80
2018-09-03T15:54:45.469Z,18.70
2018-09-03T15:57:13.908Z,18.70
2018-09-03T15:59:42.398Z,18.70
2018-09-03T16:02:10.850Z,18.60
2018-09-03T16:04:39.322Z,18.40
2018-09-03T16:07:07.762Z,18.30
2018-09-03T16:09:36.241Z,18.20
2018-09-03T16:12:04.693Z,18.10
2018-09-03T16:14:33.169Z,18.10
2018-09-03T16:17:01.636Z,18.00
2018-09-03T16:19:30.113Z,18.00
2018-09-03T16:21:58.672Z,18.00
2018-09-03T16:24:27.137Z,18.10
2018-09-03T16:26:55.813Z,18.20
2018-09-03T16:29:24.297Z,18.20
2018-09-03T16:31:52.757Z,18.20
2018-09-03T16:34:21.273Z,18.20
2018-09-03T16:36:49.753Z,18.20
2018-09-03T16:39:18.253Z,18.20
2018-09-03T16:41:46.692Z,18.20
2018-09-03T16:44:15.170Z,18.10
2018-09-03T16:46:43.649Z,18.20
2018-09-03T16:49:12.170Z,18.20
2018-09-03T16:51:40.700Z,18.20
2018-09-03T16:54:09.162Z,18.20
2018-09-03T16:56:37.646Z,18.10
2018-09-03T16:59:06.141Z,18.00
2018-09-03T17:01:34.784Z,17.90
2018-09-03T17:04:03.134Z,17.80
2018-09-03T17:06:31.593Z,17.70
2018-09-03T17:09:00.051Z,17.60
2018-09-03T17:11:28.526Z,17.70
2018-09-03T17:13:57.142Z,17.60
2018-09-03T17:16:25.636Z,17.60
2018-09-03T17:18:54.384Z,17.60
2018-09-03T17:21:22.820Z,17.50
2018-09-03T17:23:51.265Z,17.40
2018-09-03T17:26:20.012Z,17.30
2018-09-03T17:28:48.471Z,17.20
2018-09-03T17:31:16.957Z,17.10
2018-09-03T17:33:45.773Z,17.10
2018-09-03T17:36:14.253Z,17.00
2018-09-03T17:38:42.720Z,16.90
2018-09-03T17:41:11.176Z,16.80
2018-09-03T17:43:39.655Z,16.70
2018-09-03T17:46:08.114Z,16.70
2018-09-03T17:48:36.765Z,16.60
2018-09-03T17:51:05.743Z,16.60
2018-09-03T17:53:34.267Z,16.40
2018-09-03T17:56:02.731Z,16.30
2018-09-03T17:58:31.285Z,16.30
2018-09-03T18:01:00.157Z,16.30
2018-09-03T18:03:28.685Z,16.20
2018-09-03T18:05:57.226Z,16.10
2018-09-03T18:08:26.640Z,16.00
2018-09-03T18:10:55.114Z,16.00
2018-09-03T18:13:23.590Z,15.90
2018-09-03T18:15:52.044Z,15.90
2018-09-03T18:18:20.521Z,15.90
2018-09-03T18:20:49.010Z,15.80
2018-09-03T18:23:17.615Z,15.70
2018-09-03T18:25:46.073Z,15.70
2018-09-03T18:28:14.541Z,15.70
2018-09-03T18:30:43.007Z,15.60
2018-09-03T18:33:11.518Z,15.60
2018-09-03T18:35:40.209Z,15.60
2018-09-03T18:38:08.925Z,15.50
2018-09-03T18:40:37.393Z,15.50
2018-09-03T18:43:05.910Z,15.50
2018-09-03T18:45:34.409Z,15.50
2018-09-03T18:48:02.854Z,15.50
2018-09-03T18:50:31.317Z,15.50
2018-09-03T18:52:59.865Z,15.50
2018-09-03T18:55:28.337Z,15.50
2018-09-03T18:57:56.774Z,15.50
2018-09-03T19:00:25.299Z,15.40
2018-09-03T19:02:53.696Z,15.50
2018-09-03T19:05:22.252Z,15.50
2018-09-03T19:07:50.714Z,15.50
2018-09-03T19:10:19.166Z,15.60
2018-09-03T19:12:47.646Z,15.60
2018-09-03T19:15:16.096Z,15.60
2018-09-03T19:17:44.557Z,15.70
2018-09-03T19:20:13.020Z,15.70
2018-09-03T19:22:41.469Z,15.70
2018-09-03T19:25:10.177Z,15.70
2018-09-03T19:27:38.661Z,15.70
2018-09-03T19:30:07.209Z,15.70
2018-09-03T19:32:35.674Z,15.70
2018-09-03T19:35:04.181Z,15.70
2018-09-03T19:37:33.392Z,15.60
2018-09-03T19:40:01.853Z,15.60
2018-09-03T19:42:30.293Z,15.60
2018-09-03T19:44:58.734Z,15.60
2018-09-03T19:47:27.196Z,15.50
2018-09-03T19:49:55.639Z,15.40
2018-09-03T19:52:24.126Z,15.40
2018-09-03T19:54:52.798Z,15.40
2018-09-03T19:57:21.278Z,15.40
2018-09-03T19:59:50.001Z,15.30
2018-09-03T20:02:18.472Z,15.20
2018-09-03T20:04:46.938Z,15.20
2018-09-03T20:07:15.369Z,15.10
2018-09-03T20:09:44.063Z,15.10
2018-09-03T20:12:12.563Z,15.00
2018-09-03T20:14:41.110Z,15.00
2018-09-03T20:17:09.606Z,15.00
2018-09-03T20:19:38.059Z,15.00
2018-09-03T20:22:12.214Z,14.90
2018-09-03T20:24:40.839Z,14.90
2018-09-03T20:27:09.358Z,14.90
2018-09-03T20:29:37.825Z,14.90
2018-09-03T20:32:06.344Z,14.90
2018-09-03T20:34:34.777Z,14.80
2018-09-03T20:37:03.224Z,14.80
2018-09-03T20:39:31.660Z,14.80
2018-09-03T20:42:00.144Z,14.80
2018-09-03T20:44:28.834Z,14.80
2018-09-03T20:46:57.313Z,14.80
2018-09-03T20:49:25.796Z,14.80
2018-09-03T20:51:54.333Z,14.80
2018-09-03T20:54:22.909Z,14.80
2018-09-03T20:56:51.681Z,14.90
2018-09-03T20:59:20.847Z,14.90
2018-09-03T21:01:49.250Z,15.00
2018-09-03T21:04:17.886Z,14.90
2018-09-03T21:06:46.606Z,15.00
2018-09-03T21:09:15.069Z,15.10
2018-09-03T21:11:43.562Z,15.10
2018-09-03T21:14:12.009Z,15.10
2018-09-03T21:16:40.734Z,15.10
2018-09-03T21:19:09.168Z,15.10
2018-09-03T21:21:38.017Z,15.20
2018-09-03T21:24:06.457Z,15.20
2018-09-03T21:26:34.922Z,15.20
2018-09-03T21:29:03.398Z,15.10
2018-09-03T21:31:31.868Z,15.10
2018-09-03T21:34:00.347Z,15.10
2018-09-03T21:36:28.813Z,15.10
2018-09-03T21:38:57.340Z,15.00
2018-09-03T21:41:25.856Z,15.00
2018-09-03T21:43:54.376Z,15.00
2018-09-03T21:46:22.871Z,15.00
2018-09-03T21:48:51.337Z,14.90
2018-09-03T21:51:19.829Z,14.90
2018-09-03T21:53:48.267Z,14.90
2018-09-03T21:56:16.746Z,14.90
2018-09-03T21:58:45.202Z,14.80
2018-09-03T22:01:13.698Z,14.80
2018-09-03T22:03:42.162Z,14.70
2018-09-03T22:06:10.605Z,14.70
2018-09-03T22:08:39.180Z,14.70
2018-09-03T22:11:07.597Z,14.70
2018-09-03T22:13:36.088Z,14.70
2018-09-03T22:16:04.621Z,14.70
2018-09-03T22:18:33.144Z,14.50
2018-09-03T22:21:01.667Z,14.50
2018-09-03T22:23:30.105Z,14.50
2018-09-03T22:25:58.582Z,14.50
2018-09-03T22:28:27.032Z,14.40
2018-09-03T22:30:55.568Z,14.40
2018-09-03T22:33:24.011Z,14.40
2018-09-03T22:35:52.498Z,14.40
2018-09-03T22:38:20.982Z,14.40
2018-09-03T22:40:49.456Z,14.40
2018-09-03T22:43:17.898Z,14.30
2018-09-03T22:45:46.466Z,14.30
2018-09-03T22:48:15.043Z,14.30
2018-09-03T22:50:43.525Z,14.40
2018-09-03T22:53:12.027Z,14.40
2018-09-03T22:55:40.494Z,14.40
2018-09-03T22:58:08.979Z,14.40
2018-09-03T23:00:37.416Z,14.30
2018-09-03T23:03:06.017Z,14.30
2018-09-03T23:05:34.570Z,14.40
2018-09-03T23:08:02.990Z,14.30
2018-09-03T23:10:31.450Z,14.30
2018-09-03T23:13:00.129Z,14.30
2018-09-03T23:15:28.658Z,14.30
2018-09-03T23:17:57.125Z,14.30
2018-09-03T23:20:25.586Z,14.40
2018-09-03T23:22:54.039Z,14.40
2018-09-03T23:25:23.225Z,14.40
2018-09-03T23:27:51.716Z,14.40
2018-09-03T23:30:20.149Z,14.40
2018-09-03T23:32:48.609Z,14.40
2018-09-03T23:35:17.125Z,14.40
2018-09-03T23:37:45.602Z,14.40
2018-09-03T23:40:14.050Z,14.40
2018-09-03T23:42:42.510Z,14.40
2018-09-03T23:45:10.985Z,14.40
2018-09-03T23:47:39.437Z,14.50
2018-09-03T23:50:08.170Z,14.50
2018-09-03T23:52:36.642Z,14.60
2018-09-03T23:55:05.268Z,14.60
2018-09-03T23:57:33.728Z,14.70
